createdAt,value
2019-04-05T00:00:44.791Z,98953.83
2019-04-05T00:05:46.732Z,98948.70
2019-04-05T00:10:48.778Z,98945.79
2019-04-05T00:15:50.592Z,98931.44
2019-04-05T00:20:52.450Z,98942.66
2019-04-05T00:25:54.284Z,98944.38
2019-04-05T00:30:56.117Z,98942.25
2019-04-05T00:35:57.976Z,98939.09
2019-04-05T00:41:18.041Z,98948.26
2019-04-05T00:46:20.174Z,98955.88
2019-04-05T00:51:22.299Z,98966.89
2019-04-05T00:56:24.236Z,98951.48
2019-04-05T01:01:26.143Z,98961.81
2019-04-05T01:06:28.978Z,98998.27
2019-04-05T01:11:30.813Z,99014.82
2019-04-05T01:16:32.691Z,99025.55
2019-04-05T01:21:38.509Z,99045.80
2019-04-05T01:26:43.031Z,99038.59
2019-04-05T01:31:45.057Z,99035.17
2019-04-05T01:36:47.004Z,99034.52
2019-04-05T01:41:49.566Z,99039.67
2019-04-05T01:46:51.383Z,99047.23
2019-04-05T01:51:53.568Z,99040.86
2019-04-05T01:56:55.395Z,99046.41
2019-04-05T02:01:57.350Z,99050.45
2019-04-05T02:07:00.300Z,99043.61
2019-04-05T02:12:02.582Z,99045.33
2019-04-05T02:17:04.802Z,99031.55
2019-04-05T02:22:06.897Z,99035.58
2019-04-05T02:27:08.955Z,99043.17
2019-04-05T02:32:11.023Z,99049.48
2019-04-05T02:37:12.972Z,99043.44
2019-04-05T02:42:15.445Z,99045.30
2019-04-05T02:47:19.361Z,99053.05
2019-04-05T02:52:23.729Z,99057.83
2019-04-05T02:57:27.393Z,99062.66
2019-04-05T03:02:29.726Z,99066.08
2019-04-05T03:07:31.763Z,99070.00
2019-04-05T03:12:35.161Z,99078.58
2019-04-05T03:17:37.588Z,99088.09
2019-04-05T03:22:39.826Z,99084.53
2019-04-05T03:27:42.155Z,99086.24
2019-04-05T03:32:44.586Z,99075.79
2019-04-05T03:37:46.515Z,99077.75
2019-04-05T03:42:49.209Z,99081.14
2019-04-05T03:47:51.222Z,99088.35
2019-04-05T03:52:53.257Z,99082.05
2019-04-05T03:57:55.212Z,99076.41
2019-04-05T04:02:57.481Z,99087.18
2019-04-05T04:07:59.497Z,99102.27
2019-04-05T04:13:01.551Z,99115.31
2019-04-05T04:18:04.172Z,99132.80
2019-04-05T04:23:08.614Z,99136.31
2019-04-05T04:28:10.833Z,99153.24
2019-04-05T04:33:12.898Z,99156.69
2019-04-05T04:38:15.307Z,99174.86
2019-04-05T04:43:17.931Z,99183.77
2019-04-05T04:48:21.168Z,99192.58
2019-04-05T04:53:25.025Z,99200.24
2019-04-05T04:58:27.309Z,99207.58
2019-04-05T05:03:29.358Z,99206.94
2019-04-05T05:08:31.789Z,99203.33
2019-04-05T05:13:33.733Z,99202.86
2019-04-05T05:18:36.169Z,99210.06
2019-04-05T05:23:38.483Z,99221.70
2019-04-05T05:28:40.999Z,99212.55
2019-04-05T05:33:44.162Z,99206.10
2019-04-05T05:38:46.228Z,99209.00
2019-04-05T05:43:48.175Z,99207.13
2019-04-05T05:48:51.114Z,99221.20
2019-04-05T05:53:53.059Z,99213.36
2019-04-05T05:58:59.441Z,99203.23
2019-04-05T06:04:00.125Z,99212.89
2019-04-05T06:09:03.909Z,99217.95
2019-04-05T06:14:05.841Z,99222.05
2019-04-05T06:19:07.682Z,99210.06
2019-04-05T06:24:09.535Z,99225.25
2019-04-05T06:29:11.343Z,99234.09
2019-04-05T06:34:13.209Z,99237.30
2019-04-05T06:39:15.050Z,99234.97
2019-04-05T06:44:17.073Z,99246.41
2019-04-05T06:49:19.109Z,99247.50
2019-04-05T06:54:20.941Z,99249.26
2019-04-05T06:59:23.008Z,99241.56
2019-04-05T07:04:24.831Z,99241.00
2019-04-05T07:09:26.667Z,99247.99
2019-04-05T07:14:28.635Z,99252.69
2019-04-05T07:19:30.663Z,99243.16
2019-04-05T07:24:32.497Z,99254.06
2019-04-05T07:29:34.433Z,99254.17
2019-04-05T07:34:37.076Z,99267.77
2019-04-05T07:39:38.917Z,99271.88
2019-04-05T07:44:41.021Z,99274.70
2019-04-05T07:49:42.880Z,99282.17
2019-04-05T07:54:45.056Z,99289.05
2019-04-05T07:59:47.103Z,99301.91
2019-04-05T08:04:48.884Z,99313.70
2019-04-05T08:09:51.251Z,99302.67
2019-04-05T08:14:54.145Z,99322.69
2019-04-05T08:19:55.951Z,99330.54
2019-04-05T08:24:57.802Z,99340.42
2019-04-05T08:29:59.607Z,99348.88
2019-04-05T08:35:01.446Z,99341.16
2019-04-05T08:40:04.504Z,99343.53
2019-04-05T08:45:06.558Z,99340.19
2019-04-05T08:50:08.682Z,99340.58
2019-04-05T08:55:10.945Z,99347.27
2019-04-05T09:00:14.606Z,99346.67
2019-04-05T09:05:17.774Z,99340.20
2019-04-05T09:10:19.748Z,99343.25
2019-04-05T09:15:21.746Z,99342.81
2019-04-05T09:20:24.397Z,99344.84
2019-04-05T09:25:26.227Z,99345.58
2019-04-05T09:30:28.043Z,99342.91
2019-04-05T09:35:30.103Z,99340.51
2019-04-05T09:40:32.045Z,99353.80
2019-04-05T09:45:35.206Z,99356.23
2019-04-05T09:50:37.061Z,99360.30
2019-04-05T09:55:39.201Z,99352.53
2019-04-05T10:00:41.176Z,99359.02
2019-04-05T10:05:45.552Z,99361.27
2019-04-05T10:10:47.598Z,99356.05
2019-04-05T10:15:49.741Z,99362.90
2019-04-05T10:20:51.576Z,99368.55
2019-04-05T10:25:53.457Z,99362.77
2019-04-05T10:30:55.301Z,99362.77
2019-04-05T10:35:57.249Z,99363.67
2019-04-05T10:40:59.085Z,99364.87
2019-04-05T10:46:01.137Z,99384.60
2019-04-05T10:51:03.697Z,99376.66
2019-04-05T10:56:05.621Z,99371.98
2019-04-05T11:01:07.886Z,99379.02
2019-04-05T11:06:09.818Z,99395.62
2019-04-05T11:11:11.656Z,99404.43
2019-04-05T11:16:13.482Z,99404.95
2019-04-05T11:21:16.278Z,99403.08
2019-04-05T11:26:19.179Z,99398.61
2019-04-05T11:31:21.222Z,99417.17
2019-04-05T11:36:23.918Z,99406.99
2019-04-05T11:41:27.060Z,99417.88
2019-04-05T11:46:30.430Z,99406.37
2019-04-05T11:51:32.427Z,99407.45
2019-04-05T11:56:34.361Z,99412.59
2019-04-05T12:01:53.769Z,99399.15
2019-04-05T12:06:55.626Z,99404.88
2019-04-05T12:11:58.067Z,99402.47
2019-04-05T12:17:00.057Z,99402.78
2019-04-05T12:22:04.383Z,99409.42
2019-04-05T12:27:05.783Z,99407.86
2019-04-05T12:32:07.702Z,99410.56
2019-04-05T12:37:09.503Z,99404.59
2019-04-05T12:42:12.256Z,99401.53
2019-04-05T12:47:15.780Z,99394.23
2019-04-05T12:52:22.894Z,99377.23
2019-04-05T12:57:22.086Z,99367.83
2019-04-05T13:02:33.259Z,99359.44
2019-04-05T13:07:27.775Z,99351.66
2019-04-05T13:12:29.668Z,99352.46
2019-04-05T13:17:31.719Z,99354.24
2019-04-05T13:22:33.670Z,99347.05
2019-04-05T13:27:35.497Z,99349.20
2019-04-05T13:32:37.316Z,99353.08
2019-04-05T13:37:39.140Z,99349.94
2019-04-05T13:42:40.994Z,99348.00
2019-04-05T13:47:42.832Z,99346.34
2019-04-05T13:52:44.710Z,99349.95
2019-04-05T13:57:46.643Z,99344.08
2019-04-05T14:02:50.750Z,99334.16
2019-04-05T14:07:54.668Z,99344.74
2019-04-05T14:12:56.657Z,99332.84
2019-04-05T14:17:59.815Z,99322.09
2019-04-05T14:23:01.645Z,99332.89
2019-04-05T14:28:04.555Z,99331.53
2019-04-05T14:33:07.239Z,99325.33
2019-04-05T14:38:11.624Z,99318.73
2019-04-05T14:43:15.014Z,99324.53
2019-04-05T14:48:17.690Z,99313.19
2019-04-05T14:53:19.511Z,99313.23
2019-04-05T14:58:21.368Z,99314.29
2019-04-05T15:03:23.185Z,99314.86
2019-04-05T15:08:25.037Z,99315.36
2019-04-05T15:13:26.878Z,99310.17
2019-04-05T15:18:28.830Z,99319.48
2019-04-05T15:23:30.665Z,99305.94
2019-04-05T15:28:32.493Z,99316.02
2019-04-05T15:33:34.341Z,99308.17
2019-04-05T15:38:36.179Z,99315.70
2019-04-05T15:43:38.006Z,99311.94
2019-04-05T15:48:39.878Z,99308.60
2019-04-05T15:53:41.710Z,99314.27
2019-04-05T15:58:43.679Z,99306.56
2019-04-05T16:03:45.628Z,99306.09
2019-04-05T16:08:47.565Z,99312.48
2019-04-05T16:13:50.287Z,99306.52
2019-04-05T16:18:52.138Z,99306.70
2019-04-05T16:23:53.979Z,99301.55
2019-04-05T16:28:55.779Z,99299.92
2019-04-05T16:33:57.693Z,99305.08
2019-04-05T16:38:59.519Z,99311.09
2019-04-05T16:44:01.878Z,99305.56
2019-04-05T16:49:03.726Z,99306.55
2019-04-05T16:54:05.557Z,99302.40
2019-04-05T16:59:07.641Z,99307.22
2019-04-05T17:04:09.447Z,99316.50
2019-04-05T17:09:11.276Z,99305.19
2019-04-05T17:14:13.108Z,99307.60
2019-04-05T17:19:14.965Z,99301.97
2019-04-05T17:24:16.869Z,99299.17
2019-04-05T17:29:18.694Z,99308.52
2019-04-05T17:34:20.535Z,99308.64
2019-04-05T17:39:22.976Z,99309.65
2019-04-05T17:44:24.880Z,99314.26
2019-04-05T17:49:27.052Z,99306.92
2019-04-05T17:54:29.074Z,99317.00
2019-04-05T17:59:31.264Z,99328.03
2019-04-05T18:04:33.094Z,99338.33
2019-04-05T18:09:35.031Z,99346.05
2019-04-05T18:14:36.873Z,99352.64
2019-04-05T18:19:38.831Z,99352.83
2019-04-05T18:24:40.678Z,99343.78
2019-04-05T18:29:42.502Z,99347.33
2019-04-05T18:34:45.431Z,99349.77
2019-04-05T18:39:47.366Z,99355.34
2019-04-05T18:44:49.406Z,99360.19
2019-04-05T18:50:02.467Z,99357.57
2019-04-05T18:54:55.094Z,99360.13
2019-04-05T18:59:59.987Z,99358.75
2019-04-05T19:05:02.062Z,99359.61
2019-04-05T19:10:05.406Z,99345.28
2019-04-05T19:15:07.544Z,99350.08
2019-04-05T19:20:09.788Z,99355.28
2019-04-05T19:25:12.414Z,99346.89
2019-04-05T19:50:31.145Z,99359.92
2019-04-05T19:55:32.958Z,99362.64
2019-04-05T20:00:34.835Z,99365.95
2019-04-05T20:05:36.651Z,99366.81
2019-04-05T20:10:38.481Z,99372.47
2019-04-05T20:15:40.401Z,99372.72
2019-04-05T20:20:42.245Z,99378.66
2019-04-05T20:25:46.097Z,99373.66
2019-04-05T20:30:47.907Z,99372.31
2019-04-05T20:35:49.750Z,99381.38
2019-04-05T20:40:51.744Z,99377.39
2019-04-05T20:45:53.791Z,99371.42
2019-04-05T20:50:55.711Z,99367.45
2019-04-05T20:55:57.560Z,99373.45
2019-04-05T21:00:59.578Z,99368.95
2019-04-05T21:06:01.797Z,99369.48
2019-04-05T21:11:04.788Z,99368.62
2019-04-05T21:16:06.625Z,99374.83
2019-04-05T21:21:08.517Z,99378.48
2019-04-05T21:26:11.293Z,99377.84
2019-04-05T21:31:13.242Z,99376.84
2019-04-05T21:36:16.059Z,99377.97
2019-04-05T21:41:18.004Z,99374.63
2019-04-05T21:46:19.842Z,99385.67
2019-04-05T21:51:21.684Z,99387.03
2019-04-05T21:56:23.542Z,99393.71
2019-04-05T22:01:26.389Z,99384.37
2019-04-05T22:06:30.115Z,99389.41
2019-04-05T22:11:32.128Z,99394.08
2019-04-05T22:16:33.996Z,99394.58
2019-04-05T22:21:35.862Z,99394.73
2019-04-05T22:26:37.685Z,99405.79
2019-04-05T22:31:39.522Z,99401.61
2019-04-05T22:36:41.327Z,99404.59
2019-04-05T22:41:43.152Z,99414.30
2019-04-05T22:46:45.000Z,99409.28
2019-04-05T22:51:46.853Z,99407.61
2019-04-05T22:56:48.692Z,99407.45
2019-04-05T23:01:50.534Z,99405.11
2019-04-05T23:06:52.441Z,99409.27
2019-04-05T23:11:54.250Z,99415.44
2019-04-05T23:16:56.096Z,99421.28
2019-04-05T23:21:57.934Z,99422.43
2019-04-05T23:26:59.748Z,99417.60
2019-04-05T23:32:01.596Z,99426.76
2019-04-05T23:37:03.526Z,99423.91
2019-04-05T23:42:05.448Z,99416.05
2019-04-05T23:47:07.498Z,99422.53
2019-04-05T23:52:09.844Z,99432.97
2019-04-05T23:57:11.692Z,99431.41
